Duquesne, PA (15110)

1:48 AM EST on February 10, 2016 (GMT -0500)
White Oak, PA 15131-1531 | | Change Station
CLOSE
Current Station
Personal Weather Station
Location: White Oak, PA
Elevation: 1076 ft
Nearby Weather Stations

Elev 1076 ft 40.35 °N, 79.82 °W | Updated 5 seconds ago

Overcast
Overcast
23.9 °F
Feels Like 15 °F
N
8.1
Wind Variable Wind from SSW
Gusts 9.8 mph

Today
High -- | Low -- °F
--% Chance of Precip.
Yesterday
High -- | Low -- °F
Precip. -- in
Pressure 29.74 in
Visibility 10.0 miles
Clouds Mostly Cloudy 1700 ft
Overcast 2400 ft
Windchill 15 °F
Dew Point 20 °F
Humidity 85%
Rainfall 0.00 in
Snow Depth Not available.
7:19 AM 5:48 PM
Waxing Crescent, 4% visible
METAR KAGC 100553Z 25013KT 10SM BKN017 OVC024 M03/M07 A2968 RMK AO2 SLP069 60000 T10331072 11028 21033 58002
Pressure 29.74 in
Visibility 10.0 miles
Clouds Mostly Cloudy 1700 ft
Overcast 2400 ft
Windchill 15 °F
Dew Point 20 °F
Humidity 85%
Rainfall 0.00 in
Snow Depth Not available.
7:19 AM 5:48 PM
Waxing Crescent, 4% visible
METAR KAGC 100553Z 25013KT 10SM BKN017 OVC024 M03/M07 A2968 RMK AO2 SLP069 60000 T10331072 11028 21033 58002

10-Day Weather Forecast

Almanac

Astronomy

Feb. 10, 2016 Rise Set
Actual Time
Civil Twilight
Nautical Twilight
Astronomical Twilight
Moon
Length of Visible Light
Length of Day
Tomorrow will be .
, % of the Moon is Illuminated

Today's Extremes

State Highs State Lows

Community

WunderPhotos

Upload Photos

1,891,826 photos uploaded!

WunderBlog® & News

Nearby

Air Quality

  Air Quality AQ Index Pollutant
Not available.

Snow Depth

Station Depth Elevation

Earthquake Activity

City Distance Mag. Time & Date
Minimum magnitude displayed is 2.5.

Coastal Water Temperatures

Place Temperature

Stations

Nearby Weather Stations

Station Location Temp. Windchill Dew Point Humidity Wind Precip. Elev Updated Type
                   

Watches & Warnings

Winter Weather Advisory
Issued: 6:22 PM EST Feb. 9, 2016 – National Weather Service

... Winter Weather Advisory remains in effect until 7 am EST
Wednesday...

* additional snow accumulation... 1 to 2 inches.

* Snow ending... snow showers will diminish late tonight.

* Impacts... hazardous travel conditions are expected due to snow.

Precautionary/preparedness actions...

A Winter Weather Advisory for snow means that periods of snow
will cause primarily travel difficulties. Be prepared for snow
covered roads and limited visibilities... and use caution while
driving.